createdAt,value
2022-08-18T00:02:12.243Z,100727.16
2022-08-18T00:04:57.783Z,100723.78
2022-08-18T00:07:47.117Z,100712.91
2022-08-18T00:10:33.827Z,100724.22
2022-08-18T00:13:19.163Z,100724.78
2022-08-18T00:16:04.928Z,100728.53
2022-08-18T00:18:50.310Z,100720.94
2022-08-18T00:21:36.063Z,100721.44
2022-08-18T00:24:21.317Z,100724.50
2022-08-18T00:27:06.931Z,100706.13
2022-08-18T00:29:54.686Z,100716.72
2022-08-18T00:32:43.174Z,100711.34
2022-08-18T00:35:34.831Z,100721.66
2022-08-18T00:38:24.819Z,100710.38
2022-08-18T00:41:11.207Z,100727.63
2022-08-18T00:43:58.402Z,100732.69
2022-08-18T00:46:43.957Z,100726.19
2022-08-18T00:49:29.532Z,100720.16
2022-08-18T00:52:16.701Z,100727.91
2022-08-18T00:55:04.003Z,100723.91
2022-08-18T00:57:53.805Z,100731.38
2022-08-18T01:00:39.611Z,100733.72
2022-08-18T01:03:25.503Z,100717.94
2022-08-18T01:06:24.138Z,100721.16
2022-08-18T01:09:09.803Z,100727.28
2022-08-18T01:11:56.481Z,100727.13
2022-08-18T01:14:42.049Z,100732.81
2022-08-18T01:17:46.603Z,100721.25
2022-08-18T01:21:05.758Z,100720.94
2022-08-18T01:23:53.503Z,100724.69
2022-08-18T01:26:45.822Z,100724.84
2022-08-18T01:29:39.102Z,100717.38
2022-08-18T01:32:28.080Z,100719.94
2022-08-18T01:35:17.696Z,100721.25
2022-08-18T01:38:02.981Z,100730.06
2022-08-18T01:41:17.213Z,100727.53
2022-08-18T01:43:55.163Z,100723.47
2022-08-18T01:46:41.709Z,100720.34
2022-08-18T01:49:28.779Z,100724.69
2022-08-18T01:52:19.524Z,100725.06
2022-08-18T01:55:07.797Z,100734.84
2022-08-18T01:57:53.827Z,100734.22
2022-08-18T02:00:39.916Z,100734.84
2022-08-18T02:03:30.347Z,100741.69
2022-08-18T02:06:19.164Z,100748.84
2022-08-18T02:09:24.169Z,100747.53
2022-08-18T02:12:10.465Z,100743.03
2022-08-18T02:14:55.930Z,100745.69
2022-08-18T02:17:44.170Z,100740.66
2022-08-18T02:20:29.544Z,100745.00
2022-08-18T02:23:15.000Z,100738.44
2022-08-18T02:26:05.158Z,100724.72
2022-08-18T02:28:51.203Z,100726.88
2022-08-18T02:31:36.860Z,100727.50
2022-08-18T02:34:22.641Z,100726.88
2022-08-18T02:37:10.894Z,100718.78
2022-08-18T02:40:00.149Z,100723.63
2022-08-18T02:42:46.835Z,100723.63
2022-08-18T02:45:32.723Z,100715.88
2022-08-18T02:48:24.252Z,100716.63
2022-08-18T02:51:15.305Z,100723.88
2022-08-18T02:54:00.915Z,100722.28
2022-08-18T02:56:47.077Z,100716.59
2022-08-18T02:59:33.565Z,100712.16
2022-08-18T03:02:19.772Z,100720.25
2022-08-18T03:05:07.169Z,100712.63
2022-08-18T03:07:56.165Z,100711.69
2022-08-18T03:10:41.829Z,100723.16
2022-08-18T03:13:27.171Z,100713.16
2022-08-18T03:16:13.667Z,100732.06
2022-08-18T03:19:00.925Z,100736.16
2022-08-18T03:21:47.591Z,100730.41
2022-08-18T03:24:33.644Z,100742.69
2022-08-18T03:27:19.083Z,100747.88
2022-08-18T03:30:04.775Z,100749.06
2022-08-18T03:32:57.760Z,100748.34
2022-08-18T03:35:43.980Z,100752.69
2022-08-18T03:38:29.511Z,100744.47
2022-08-18T03:41:18.033Z,100757.97
2022-08-18T03:44:23.672Z,100765.94
2022-08-18T03:47:10.912Z,100760.63
2022-08-18T03:49:56.468Z,100753.63
2022-08-18T03:52:42.057Z,100767.13
2022-08-18T03:55:29.399Z,100771.25
2022-08-18T03:58:15.605Z,100764.13
2022-08-18T04:01:03.306Z,100760.75
2022-08-18T04:03:53.053Z,100768.25
2022-08-18T04:06:43.852Z,100771.72
2022-08-18T04:09:30.829Z,100768.09
2022-08-18T04:12:17.278Z,100770.25
2022-08-18T04:15:03.493Z,100762.16
2022-08-18T04:18:03.415Z,100770.03
2022-08-18T04:20:59.344Z,100771.25
2022-08-18T04:23:45.610Z,100771.84
2022-08-18T04:26:33.088Z,100767.53
2022-08-18T04:29:21.134Z,100773.47
2022-08-18T04:32:07.342Z,100773.09
2022-08-18T04:34:52.919Z,100767.31
2022-08-18T04:37:39.789Z,100773.69
2022-08-18T04:40:27.399Z,100754.00
2022-08-18T04:43:15.229Z,100762.34
2022-08-18T04:46:02.082Z,100774.41
2022-08-18T04:48:47.698Z,100770.78
2022-08-18T04:52:36.519Z,100771.03
2022-08-18T04:54:40.460Z,100776.84
2022-08-18T04:57:26.166Z,100780.47
2022-08-18T05:00:13.874Z,100779.97
2022-08-18T05:03:00.259Z,100775.78
2022-08-18T05:05:45.925Z,100772.22
2022-08-18T05:08:31.459Z,100783.97
2022-08-18T05:11:16.980Z,100778.97
2022-08-18T05:14:06.145Z,100779.84
2022-08-18T05:16:51.992Z,100780.47
2022-08-18T05:19:42.300Z,100789.09
2022-08-18T05:22:30.878Z,100791.53
2022-08-18T05:25:17.386Z,100797.56
2022-08-18T05:28:02.705Z,100806.44
2022-08-18T05:30:48.466Z,100800.50
2022-08-18T05:33:34.720Z,100801.56
2022-08-18T05:36:52.973Z,100803.81
2022-08-18T05:39:54.739Z,100801.72
2022-08-18T05:42:41.231Z,100796.94
2022-08-18T05:45:27.037Z,100806.06
2022-08-18T05:48:14.145Z,100799.56
2022-08-18T05:51:08.509Z,100809.66
2022-08-18T05:54:14.938Z,100797.38
2022-08-18T05:57:08.008Z,100793.72
2022-08-18T05:59:54.519Z,100791.25
2022-08-18T06:02:50.167Z,100788.88
2022-08-18T06:05:41.983Z,100782.41
2022-08-18T06:08:53.156Z,100776.06
2022-08-18T06:11:39.066Z,100780.13
2022-08-18T06:14:24.865Z,100779.56
2022-08-18T06:17:38.873Z,100782.78
2022-08-18T06:20:33.970Z,100790.25
2022-08-18T06:23:53.261Z,100797.78
2022-08-18T06:26:56.020Z,100802.72
2022-08-18T06:29:56.420Z,100805.41
2022-08-18T06:33:03.401Z,100806.97
2022-08-18T06:35:52.119Z,100810.91
2022-08-18T06:38:56.397Z,100803.31
2022-08-18T06:41:48.826Z,100812.72
2022-08-18T06:44:45.642Z,100815.25
2022-08-18T06:47:42.326Z,100821.72
2022-08-18T06:50:34.070Z,100832.09
2022-08-18T06:53:27.718Z,100814.97
2022-08-18T06:56:26.460Z,100832.41
2022-08-18T06:59:24.216Z,100841.25
2022-08-18T07:02:40.545Z,100840.38
2022-08-18T07:05:29.297Z,100836.88
2022-08-18T07:08:20.287Z,100840.22
2022-08-18T07:11:18.058Z,100845.94
2022-08-18T07:14:22.867Z,100857.75
2022-08-18T07:17:10.838Z,100861.28
2022-08-18T07:20:09.679Z,100864.81
2022-08-18T07:23:01.226Z,100865.34
2022-08-18T07:26:02.915Z,100871.03
2022-08-18T07:28:52.936Z,100872.47
2022-08-18T07:31:51.666Z,100879.19
2022-08-18T07:34:41.158Z,100877.75
2022-08-18T07:37:48.788Z,100876.78
2022-08-18T07:40:45.411Z,100876.94
2022-08-18T07:43:41.652Z,100897.72
2022-08-18T07:46:42.678Z,100892.16
2022-08-18T07:49:33.465Z,100890.44
2022-08-18T07:52:43.823Z,100888.91
2022-08-18T07:55:35.628Z,100882.94
2022-08-18T07:58:53.440Z,100884.00
2022-08-18T08:02:06.418Z,100878.56
2022-08-18T08:04:58.331Z,100884.72
2022-08-18T08:07:59.595Z,100875.91
2022-08-18T08:11:11.117Z,100870.09
2022-08-18T08:14:01.078Z,100880.56
2022-08-18T08:16:51.258Z,100891.34
2022-08-18T08:20:00.974Z,100895.25
2022-08-18T08:23:17.319Z,100900.75
2022-08-18T08:26:33.579Z,100898.69
2022-08-18T08:30:00.874Z,100902.31
2022-08-18T08:33:07.630Z,100906.06
2022-08-18T08:36:07.873Z,100898.25
2022-08-18T08:39:05.393Z,100909.25
2022-08-18T08:42:30.735Z,100911.53
2022-08-18T08:45:25.187Z,100917.06
2022-08-18T08:48:20.921Z,100914.66
2022-08-18T08:51:24.870Z,100919.16
2022-08-18T08:54:30.610Z,100909.94
2022-08-18T08:57:17.737Z,100921.72
2022-08-18T09:00:08.694Z,100924.66
2022-08-18T09:03:16.095Z,100928.47
2022-08-18T09:06:27.137Z,100923.31
2022-08-18T09:09:26.268Z,100919.19
2022-08-18T09:12:39.978Z,100907.19
2022-08-18T09:15:51.341Z,100906.47
2022-08-18T09:19:19.036Z,100899.47
2022-08-18T09:22:40.316Z,100899.91
2022-08-18T09:25:43.289Z,100903.13
2022-08-18T09:28:28.742Z,100913.28
2022-08-18T09:31:19.621Z,100906.03
2022-08-18T09:34:21.834Z,100905.97
2022-08-18T09:37:18.880Z,100902.81
2022-08-18T09:41:01.766Z,100901.75
2022-08-18T09:44:17.827Z,100901.22
2022-08-18T09:47:33.853Z,100900.34
2022-08-18T09:50:55.173Z,100905.56
2022-08-18T09:53:46.587Z,100907.44
2022-08-18T09:56:54.235Z,100904.03
2022-08-18T09:59:47.642Z,100900.19
2022-08-18T10:02:37.584Z,100894.09
2022-08-18T10:05:29.169Z,100903.72
2022-08-18T10:08:21.496Z,100894.63
2022-08-18T10:11:28.646Z,100903.72
2022-08-18T10:14:41.986Z,100893.06
2022-08-18T10:17:58.068Z,100893.41
2022-08-18T10:20:58.675Z,100889.13
2022-08-18T10:23:58.211Z,100888.00
2022-08-18T10:26:54.065Z,100886.41
2022-08-18T10:29:50.375Z,100887.13
2022-08-18T10:32:44.173Z,100882.78
2022-08-18T10:35:35.838Z,100887.84
2022-08-18T10:38:39.171Z,100888.97
2022-08-18T10:41:31.442Z,100880.81
2022-08-18T10:47:33.658Z,100869.22
2022-08-18T10:50:22.661Z,100866.06
2022-08-18T10:53:39.802Z,100880.44
2022-08-18T10:56:28.567Z,100873.84
2022-08-18T10:59:28.775Z,100868.19
2022-08-18T11:02:38.625Z,100868.13
2022-08-18T11:05:26.441Z,100868.00
2022-08-18T11:08:20.476Z,100867.84
2022-08-18T11:11:33.787Z,100856.78
2022-08-18T11:14:31.849Z,100862.69
2022-08-18T11:17:32.997Z,100866.78
2022-08-18T11:20:24.413Z,100852.47
2022-08-18T11:23:16.949Z,100857.63
2022-08-18T11:26:14.925Z,100844.38
2022-08-18T11:29:32.313Z,100844.78
2022-08-18T11:32:26.945Z,100858.13
2022-08-18T11:35:20.788Z,100842.00
2022-08-18T11:38:12.991Z,100843.47
2022-08-18T11:41:19.506Z,100846.56
2022-08-18T11:44:14.174Z,100837.34
2022-08-18T11:47:30.199Z,100835.13
2022-08-18T11:50:27.861Z,100825.25
2022-08-18T11:53:33.262Z,100835.91
2022-08-18T11:56:20.463Z,100829.56
2022-08-18T11:59:25.698Z,100814.94
2022-08-18T12:02:30.920Z,100822.66
2022-08-18T12:05:17.948Z,100815.03
2022-08-18T12:08:06.376Z,100818.31
2022-08-18T12:11:26.723Z,100814.41
2022-08-18T12:14:29.870Z,100813.63
2022-08-18T12:17:19.149Z,100824.84
2022-08-18T12:20:11.843Z,100810.19
2022-08-18T12:22:57.897Z,100806.09
2022-08-18T12:25:43.398Z,100812.06
2022-08-18T12:28:29.070Z,100810.50
2022-08-18T12:31:15.163Z,100806.16
2022-08-18T12:34:02.665Z,100801.41
2022-08-18T12:36:48.591Z,100789.84
2022-08-18T12:39:35.766Z,100798.03
2022-08-18T12:42:21.946Z,100780.28
2022-08-18T12:45:08.822Z,100780.56
2022-08-18T12:47:54.638Z,100770.03
2022-08-18T12:50:54.103Z,100764.81
2022-08-18T12:56:51.252Z,100750.75
2022-08-18T12:59:37.657Z,100771.28
2022-08-18T13:02:23.235Z,100773.41
2022-08-18T13:05:11.620Z,100768.91
2022-08-18T13:08:04.481Z,100777.84
2022-08-18T13:10:51.251Z,100776.06
2022-08-18T13:13:42.601Z,100771.47
2022-08-18T13:16:53.500Z,100778.00
2022-08-18T13:19:39.358Z,100762.34
2022-08-18T13:22:32.944Z,100764.31
2022-08-18T13:25:32.626Z,100753.19
2022-08-18T13:28:24.446Z,100759.44
2022-08-18T13:31:16.069Z,100753.69
2022-08-18T13:34:03.690Z,100747.69
2022-08-18T13:36:49.694Z,100746.09
2022-08-18T13:39:35.187Z,100743.28
2022-08-18T13:42:26.468Z,100755.94
2022-08-18T13:45:24.962Z,100745.50
2022-08-18T13:48:11.450Z,100745.63
2022-08-18T13:51:01.699Z,100751.88
2022-08-18T13:53:59.361Z,100746.22
2022-08-18T13:56:53.428Z,100745.06
2022-08-18T13:59:46.746Z,100735.53
2022-08-18T14:02:32.486Z,100734.50
2022-08-18T14:05:18.375Z,100730.81
2022-08-18T14:08:06.210Z,100719.72
2022-08-18T14:10:53.711Z,100711.50
2022-08-18T14:13:43.956Z,100718.13
2022-08-18T14:16:29.690Z,100728.16
2022-08-18T14:19:34.947Z,100741.69
2022-08-18T14:22:44.501Z,100733.09
2022-08-18T14:25:48.323Z,100740.50
2022-08-18T14:28:34.435Z,100736.06
2022-08-18T14:31:20.533Z,100752.53
2022-08-18T14:34:06.417Z,100760.56
2022-08-18T14:36:52.058Z,100752.97
2022-08-18T14:39:38.560Z,100752.44
2022-08-18T14:42:41.029Z,100732.47
2022-08-18T14:45:35.425Z,100742.31
2022-08-18T14:48:22.956Z,100750.97
2022-08-18T14:51:10.116Z,100730.91
2022-08-18T14:53:56.384Z,100746.81
2022-08-18T14:56:41.667Z,100741.06
2022-08-18T14:59:30.832Z,100745.47
2022-08-18T15:02:20.447Z,100736.25
2022-08-18T15:05:19.470Z,100760.63
2022-08-18T15:08:10.898Z,100741.75
2022-08-18T15:10:57.291Z,100761.53
2022-08-18T15:13:45.305Z,100742.75
2022-08-18T15:16:34.985Z,100755.13
2022-08-18T15:19:58.576Z,100746.81
2022-08-18T15:22:48.942Z,100754.34
2022-08-18T15:25:44.636Z,100750.38
2022-08-18T15:28:30.302Z,100754.34
2022-08-18T15:31:17.103Z,100750.44
2022-08-18T15:34:04.088Z,100745.91
2022-08-18T15:36:49.428Z,100752.31
2022-08-18T15:39:35.300Z,100750.00
2022-08-18T15:42:20.805Z,100749.63
2022-08-18T15:45:11.926Z,100751.50
2022-08-18T15:47:57.762Z,100749.75
2022-08-18T15:50:48.165Z,100755.72
2022-08-18T15:53:36.783Z,100751.88
2022-08-18T15:56:26.203Z,100752.09
2022-08-18T15:59:12.677Z,100742.38
2022-08-18T16:02:00.290Z,100737.59
2022-08-18T16:04:45.733Z,100741.84
2022-08-18T16:07:40.908Z,100743.44
2022-08-18T16:10:32.417Z,100745.94
2022-08-18T16:13:19.225Z,100743.44
2022-08-18T16:16:12.127Z,100748.16
2022-08-18T16:18:58.308Z,100751.78
2022-08-18T16:21:43.776Z,100744.69
2022-08-18T16:24:29.430Z,100742.50
2022-08-18T16:27:15.009Z,100730.09
2022-08-18T16:30:01.154Z,100735.38
2022-08-18T16:32:47.454Z,100741.91
2022-08-18T16:35:35.301Z,100725.47
2022-08-18T16:38:20.965Z,100731.59
2022-08-18T16:41:11.285Z,100724.41
2022-08-18T16:43:58.976Z,100726.66
2022-08-18T16:46:44.709Z,100718.28
2022-08-18T16:49:30.224Z,100713.72
2022-08-18T16:52:15.932Z,100715.88
2022-08-18T16:55:01.888Z,100714.09
2022-08-18T16:58:05.863Z,100711.88
2022-08-18T17:01:12.623Z,100702.78
2022-08-18T17:04:14.660Z,100713.47
2022-08-18T17:07:06.618Z,100701.09
2022-08-18T17:09:52.459Z,100708.59
2022-08-18T17:12:38.101Z,100705.91
2022-08-18T17:15:23.573Z,100702.81
2022-08-18T17:18:09.900Z,100704.66
2022-08-18T17:20:55.522Z,100703.72
2022-08-18T17:23:42.168Z,100711.91
2022-08-18T17:26:52.346Z,100708.81
2022-08-18T17:29:47.980Z,100710.97
2022-08-18T17:32:46.857Z,100711.03
2022-08-18T17:35:41.451Z,100710.91
2022-08-18T17:38:43.724Z,100714.47
2022-08-18T17:41:29.475Z,100716.59
2022-08-18T17:44:16.455Z,100711.38
2022-08-18T17:47:03.687Z,100718.97
2022-08-18T17:50:28.127Z,100715.88
2022-08-18T17:53:14.022Z,100720.31
2022-08-18T17:56:01.167Z,100731.81
2022-08-18T17:58:53.200Z,100728.09
2022-08-18T18:01:38.777Z,100737.84
2022-08-18T18:04:24.258Z,100736.34
2022-08-18T18:07:26.424Z,100750.66
2022-08-18T18:13:51.400Z,100744.63
2022-08-18T18:16:37.007Z,100751.19
2022-08-18T18:19:27.637Z,100735.41
2022-08-18T18:22:25.290Z,100748.66
2022-08-18T18:25:12.856Z,100763.25
2022-08-18T18:27:58.657Z,100754.69
2022-08-18T18:30:44.317Z,100760.41
2022-08-18T18:33:31.736Z,100753.69
2022-08-18T18:36:32.053Z,100755.31
2022-08-18T18:39:22.321Z,100751.81
2022-08-18T18:42:25.148Z,100748.47
2022-08-18T18:45:31.071Z,100754.66
2022-08-18T18:48:51.729Z,100740.56
2022-08-18T18:51:53.153Z,100739.81
2022-08-18T18:55:09.595Z,100749.16
2022-08-18T18:58:16.676Z,100753.66
2022-08-18T19:01:05.573Z,100762.44
2022-08-18T19:04:03.180Z,100768.81
2022-08-18T19:07:07.378Z,100764.59
2022-08-18T19:10:18.494Z,100777.78
2022-08-18T19:13:08.403Z,100780.72
2022-08-18T19:15:57.664Z,100784.94
2022-08-18T19:19:35.848Z,100790.41
2022-08-18T19:22:06.714Z,100791.44
2022-08-18T19:25:41.613Z,100800.22
2022-08-18T19:29:12.156Z,100798.44
2022-08-18T19:32:16.348Z,100803.34
2022-08-18T19:35:04.479Z,100818.06
2022-08-18T19:38:20.758Z,100821.50
2022-08-18T19:41:20.500Z,100821.97
2022-08-18T19:44:15.596Z,100827.53
2022-08-18T19:47:12.688Z,100824.72
2022-08-18T19:50:13.587Z,100818.34
2022-08-18T19:53:32.759Z,100829.53
2022-08-18T19:56:58.179Z,100828.56
2022-08-18T20:00:15.718Z,100825.38
2022-08-18T20:03:18.439Z,100824.69
2022-08-18T20:06:36.182Z,100826.56
2022-08-18T20:09:33.607Z,100828.88
2022-08-18T20:13:00.864Z,100830.41
2022-08-18T20:16:35.558Z,100824.38
2022-08-18T20:19:35.842Z,100824.13
2022-08-18T20:22:21.880Z,100825.78
2022-08-18T20:25:17.413Z,100834.31
2022-08-18T20:28:05.440Z,100833.59
2022-08-18T20:31:17.550Z,100828.06
2022-08-18T20:34:14.064Z,100821.72
2022-08-18T20:37:08.015Z,100827.66
2022-08-18T20:39:55.004Z,100826.56
2022-08-18T20:42:56.154Z,100831.09
2022-08-18T20:46:13.518Z,100834.66
2022-08-18T20:49:26.654Z,100845.19
2022-08-18T20:52:34.726Z,100845.19
2022-08-18T20:55:45.660Z,100846.41
2022-08-18T20:58:36.125Z,100847.78
2022-08-18T21:01:25.293Z,100844.44
2022-08-18T21:04:10.859Z,100829.56
2022-08-18T21:06:56.369Z,100839.97
2022-08-18T21:09:50.465Z,100830.28
2022-08-18T21:12:36.357Z,100832.41
2022-08-18T21:15:25.761Z,100829.06
2022-08-18T21:18:21.755Z,100838.03
2022-08-18T21:21:26.808Z,100837.47
2022-08-18T21:24:20.724Z,100832.41
2022-08-18T21:27:12.139Z,100828.88
2022-08-18T21:30:03.257Z,100833.53
2022-08-18T21:32:49.626Z,100836.03
2022-08-18T21:35:38.018Z,100855.44
2022-08-18T21:38:27.176Z,100855.44
2022-08-18T21:41:13.667Z,100866.38
2022-08-18T21:44:04.657Z,100882.25
2022-08-18T21:46:51.389Z,100867.41
2022-08-18T21:49:37.698Z,100886.75
2022-08-18T21:52:24.653Z,100888.00
2022-08-18T21:55:26.102Z,100890.56
2022-08-18T21:58:15.555Z,100898.25
2022-08-18T22:01:10.064Z,100915.94
2022-08-18T22:04:06.764Z,100904.53
2022-08-18T22:06:56.787Z,100919.38
2022-08-18T22:10:17.395Z,100919.19
2022-08-18T22:13:21.643Z,100912.84
2022-08-18T22:16:30.757Z,100905.41
2022-08-18T22:19:19.036Z,100900.03
2022-08-18T22:22:26.298Z,100892.16
2022-08-18T22:25:22.029Z,100882.75
2022-08-18T22:28:07.365Z,100877.19
2022-08-18T22:30:52.776Z,100878.50
2022-08-18T22:33:39.438Z,100881.94
2022-08-18T22:36:32.208Z,100869.16
2022-08-18T22:39:37.182Z,100880.13
2022-08-18T22:42:25.870Z,100879.47
2022-08-18T22:45:14.051Z,100877.44
2022-08-18T22:47:59.456Z,100884.28
2022-08-18T22:50:46.139Z,100874.94
2022-08-18T22:53:31.739Z,100877.50
2022-08-18T22:56:34.053Z,100881.41
2022-08-18T22:59:20.924Z,100870.75
2022-08-18T23:02:06.820Z,100861.16
2022-08-18T23:04:52.491Z,100866.59
2022-08-18T23:07:38.105Z,100866.47
2022-08-18T23:10:23.482Z,100871.06
2022-08-18T23:13:08.988Z,100865.72
2022-08-18T23:15:54.568Z,100851.72
2022-08-18T23:19:02.034Z,100863.03
2022-08-18T23:21:48.550Z,100854.34
2022-08-18T23:24:33.978Z,100838.59
2022-08-18T23:27:21.710Z,100842.81
2022-08-18T23:30:07.789Z,100836.91
2022-08-18T23:32:53.095Z,100838.44
2022-08-18T23:35:40.313Z,100830.84
2022-08-18T23:38:31.660Z,100831.69
2022-08-18T23:41:17.846Z,100830.25
2022-08-18T23:44:03.426Z,100835.34
2022-08-18T23:46:49.335Z,100830.25
2022-08-18T23:49:36.389Z,100825.53
2022-08-18T23:52:21.778Z,100815.09
2022-08-18T23:55:12.977Z,100812.91
2022-08-18T23:57:58.622Z,100825.34
